Aérodrome :
LOGIN :

S'inscrire | Disclaimer

   EN    FR    IT 

 










Légende :    VFR   VFR Marginal   IFR   IFR Intensif   IFR Très Intensif
Visi : 
Plafond : 
>= 8 km
>= 3000ft
5 à 8 km
1000 à 3000 ft
1500m à 5 km
500 à 1000 ft
800 à 1500m
200 à 500 ft
< 800m
< 200 ft
Symboles :   Orages  Brouillard  Fortes neiges  Fortes précipitations  Vent > 20 kt
SIGMETs :   Divers  Orages  Givrage  Turbulence  Onde Orograph.  Cendres Volcan.






- Altitude de l'aérodrome : 184 ft
- Code IATA : BRU


EBBR - Bruxelles

DERNIER METAR :
  • 200950Z VRB02KT 7000 FEW020 13/07 Q1018 NOSIG

METARs EXPIRÉS :
  • 200920Z VRB02KT 6000 FEW020 12/08 Q1018 NOSIG
  • 200850Z VRB01KT 6000 BR NSC 11/08 Q1018 NOSIG
  • 200820Z VRB01KT 5000 BR NSC 11/09 Q1018 BECMG 6000 NSW
  • 200750Z 00000KT 4500 BR NSC 10/08 Q1018 BECMG 6000 NSW

TAF TAF EBBR
Valide du 20 à 06h jusqu'au 21 à 12h UTC


200510Z 2006/2112 VRB02KT 2500 BR NSC
PROB40
TEMPO 2006/2008 0400 FG BKN001
BECMG 2007/2009 8000 NSW
PROB30
TEMPO 2013/2019 SHRA
PROB40
TEMPO 2102/2108 2500 BR MIFG
PROB30
TEMPO 2105/2108 BKN004



MET'MAP, la Météo Aéronautique d'un coup d'oeil ! - Copyright ORBIFLY Décembre 2007 - Disclaimer

ORBIFLY MET'MAP TEAM :

Programmation & Développement : Alexandra Zaïnal
Sur une idée originale de : Baudouin d'Aumeries
Assistance à la programmation : Marc-Olivier Méhu
Soutien technique & logistique : Manuel Goepfert

Contact : metmap@orbifly.com




SOURCES & CREDITS :

   NOAA